Drummond Island, MI

8:22 PM EST on January 22, 2017 (GMT -0500)
Drummond Island

Weather History for KDRM - January, 2013

Change the Weather History Date:

Friday, January 4, 2013

  Actual Average (KCIU) Record (KCIU)
Temperature  
Mean Temperature 30 °F -  
Max Temperature 32 °F 24 °F 44 °F (2007)
Min Temperature 28 °F 7 °F -37 °F (1981)
Degree Days  
Heating Degree Days 35    
Moisture  
Dew Point 23 °F    
Average Humidity 76    
Maximum Humidity 84    
Minimum Humidity 68    
Precipitation  
Precipitation 0.00 in - - ()
Sea Level Pressure  
Sea Level Pressure 29.80 in    
Wind  
Wind Speed 12 mph (WSW)    
Max Wind Speed 18 mph    
Max Gust Speed 32 mph    
Visibility 9 miles    
Events      
Averages and records for this station are not official NWS values.
T = Trace of Precipitation, MM = Missing Value Source: NWS Daily Summary

Daily Weather History Graph

Daily Weather History Graph

Search for Another Location

Airport or City:

Trip Planner

Search our weather history database for the weather conditions in past years. The results will help you decide how hot, cold, wet, or windy it might be!

Date:

Astronomy

Jan. 04, 2013 Rise Set
Actual Time 8:16 AM EST 5:03 PM EST
Civil Twilight 7:42 AM EST 5:37 PM EST
Nautical Twilight 7:04 AM EST 6:15 PM EST
Astronomical Twilight 6:28 AM EST 6:51 PM EST
Moon 12:00 AM EST (1/4) 11:33 AM EST (1/4)
Length of Visible Light 9h 55m
Length of Day
8h 46m
Waning Gibbous, 55% of the Moon is Illuminated
Jan 4
Waning Gibbous
Jan 4
Last Quarter
Jan 11
New
Jan 18
First Quarter
Jan 26
Full

Hourly Weather History & Observations

Time (EST) Temp. Windchill Dew Point Humidity Pressure Visibility Wind Dir Wind Speed Gust Speed Precip Events Conditions
12:15 AM 29.3 °F 19.1 °F 23.7 °F 80% 29.81 in 5.0 mi WSW 12.7 mph 24.2 mph N/A   Haze
12:35 AM 29.5 °F 18.0 °F 24.1 °F 80% 29.80 in 5.0 mi WSW 16.1 mph 27.6 mph N/A   Haze
12:56 AM 29.3 °F 19.6 °F 23.9 °F 80% 29.78 in 7.0 mi WSW 11.5 mph 24.2 mph N/A   Mostly Cloudy
1:15 AM 29.3 °F 17.0 °F 23.9 °F 80% 29.76 in 7.0 mi SW 18.4 mph 26.5 mph N/A   Mostly Cloudy
1:35 AM 28.9 °F 16.5 °F 23.9 °F 81% 29.74 in 4.0 mi SW 18.4 mph 28.8 mph N/A   Haze
1:56 AM 29.3 °F 17.7 °F 24.6 °F 83% 29.72 in 4.0 mi SW 16.1 mph 31.1 mph N/A   Haze
2:15 AM 29.3 °F 19.1 °F 24.1 °F 81% 29.72 in 3.0 mi SW 12.7 mph 32.2 mph N/A   Haze
2:35 AM 29.3 °F 19.1 °F 23.9 °F 80% 29.72 in 7.0 mi SW 12.7 mph 26.5 mph N/A   Mostly Cloudy
2:55 AM 29.3 °F 17.7 °F 24.3 °F 81% 29.73 in 7.0 mi WSW 16.1 mph 24.2 mph N/A   Mostly Cloudy
3:15 AM 29.8 °F 17.7 °F 24.8 °F 81% 29.72 in 7.0 mi WSW 18.4 mph 27.6 mph N/A   Overcast
3:35 AM 30.4 °F 20.5 °F 25.7 °F 83% 29.72 in 7.0 mi WSW 12.7 mph 24.2 mph N/A   Overcast
3:55 AM 31.1 °F 20.9 °F 26.2 °F 82% 29.73 in 10.0 mi WSW 13.8 mph 24.2 mph N/A   Overcast
4:15 AM 30.7 °F 20.4 °F 24.8 °F 79% 29.73 in 7.0 mi West 13.8 mph 25.3 mph N/A   Overcast
4:36 AM 30.2 °F 19.3 °F 23.9 °F 77% 29.73 in 10.0 mi West 15.0 mph 27.6 mph N/A   Overcast
4:55 AM 29.8 °F 19.8 °F 23.2 °F 76% 29.73 in 7.0 mi West 12.7 mph 28.8 mph N/A   Overcast
5:15 AM 29.3 °F 18.2 °F 23.0 °F 77% 29.73 in 7.0 mi West 15.0 mph 25.3 mph N/A   Overcast
5:55 AM 29.3 °F 21.5 °F 22.1 °F 75% 29.73 in 10.0 mi West 8.1 mph 19.6 mph N/A   Overcast
6:15 AM 29.1 °F 19.4 °F 21.2 °F 72% 29.74 in 10.0 mi West 11.5 mph 23.0 mph N/A   Overcast
6:36 AM 29.1 °F 21.3 °F 20.8 °F 71% 29.74 in 10.0 mi West 8.1 mph 17.3 mph N/A   Overcast
6:55 AM 28.9 °F 19.2 °F 20.3 °F 70% 29.74 in 10.0 mi WSW 11.5 mph 23.0 mph N/A   Overcast
7:15 AM 28.9 °F 19.8 °F 20.5 °F 71% 29.75 in 10.0 mi WSW 10.4 mph 18.4 mph N/A   Overcast
7:35 AM 28.8 °F 20.2 °F 20.7 °F 72% 29.75 in 10.0 mi WSW 9.2 mph 18.4 mph N/A   Overcast
7:55 AM 28.8 °F 19.5 °F 20.3 °F 71% 29.75 in 10.0 mi WSW 10.4 mph 19.6 mph N/A   Overcast
8:15 AM 28.8 °F 19.5 °F 20.3 °F 71% 29.75 in 10.0 mi WSW 10.4 mph 20.7 mph N/A   Overcast
8:35 AM 28.9 °F 19.2 °F 20.7 °F 71% 29.75 in 10.0 mi WSW 11.5 mph 18.4 mph N/A   Overcast
8:55 AM 28.8 °F 19.0 °F 21.0 °F 73% 29.76 in 10.0 mi WSW 11.5 mph 17.3 mph N/A   Overcast
9:16 AM 28.9 °F 17.7 °F 21.2 °F 73% 29.76 in 10.0 mi WSW 15.0 mph 20.7 mph N/A   Overcast
9:35 AM 28.9 °F 17.7 °F 21.2 °F 73% 29.76 in 10.0 mi WSW 15.0 mph 20.7 mph N/A   Overcast
9:56 AM 28.9 °F 19.2 °F 21.2 °F 73% 29.77 in 10.0 mi WSW 11.5 mph 21.9 mph N/A   Overcast
10:15 AM 29.1 °F 20.6 °F 21.7 °F 74% 29.78 in 10.0 mi WSW 9.2 mph 20.7 mph N/A   Overcast
10:35 AM 28.9 °F 19.2 °F 21.9 °F 75% 29.78 in 10.0 mi WSW 11.5 mph 16.1 mph N/A   Overcast
10:55 AM 28.9 °F 19.2 °F 21.6 °F 74% 29.78 in 10.0 mi WSW 11.5 mph 23.0 mph N/A   Overcast
11:15 AM 28.9 °F 19.8 °F 21.9 °F 75% 29.79 in 10.0 mi WSW 10.4 mph 18.4 mph N/A   Overcast
11:35 AM 29.1 °F 19.4 °F 22.1 °F 75% 29.78 in 10.0 mi WSW 11.5 mph 16.1 mph N/A   Overcast
11:55 AM 29.3 °F 19.1 °F 22.8 °F 77% 29.79 in 10.0 mi WSW 12.7 mph 20.7 mph N/A   Overcast
12:15 PM 28.9 °F 19.8 °F 22.5 °F 77% 29.79 in 10.0 mi WSW 10.4 mph 19.6 mph N/A   Overcast
12:35 PM 29.1 °F 21.3 °F 22.3 °F 76% 29.78 in 10.0 mi West 8.1 mph - N/A   Overcast
12:55 PM 29.1 °F 20.0 °F 23.0 °F 78% 29.78 in 10.0 mi WSW 10.4 mph 17.3 mph N/A   Overcast
1:15 PM 29.1 °F 19.4 °F 23.0 °F 78% 29.77 in 10.0 mi WSW 11.5 mph 17.3 mph N/A   Overcast
1:35 PM 28.9 °F 19.2 °F 22.6 °F 77% 29.77 in 10.0 mi WSW 11.5 mph 20.7 mph N/A   Overcast
1:55 PM 28.9 °F 20.4 °F 22.6 °F 77% 29.77 in 10.0 mi West 9.2 mph 17.3 mph N/A   Overcast
2:15 PM 28.9 °F 20.4 °F 23.2 °F 79% 29.77 in 10.0 mi West 9.2 mph 16.1 mph N/A   Overcast
2:35 PM 28.8 °F 20.2 °F 23.5 °F 81% 29.77 in 10.0 mi WSW 9.2 mph 20.7 mph N/A   Overcast
2:55 PM 28.6 °F 17.2 °F 23.9 °F 83% 29.77 in 10.0 mi West 15.0 mph 23.0 mph N/A   Overcast
3:16 PM 28.6 °F 19.3 °F 23.9 °F 83% 29.78 in 10.0 mi West 10.4 mph 21.9 mph N/A   Overcast
3:35 PM 28.8 °F 19.5 °F 24.1 °F 83% 29.78 in 10.0 mi West 10.4 mph 20.7 mph N/A   Overcast
3:55 PM 29.1 °F 20.0 °F 24.8 °F 84% 29.79 in 10.0 mi West 10.4 mph 16.1 mph N/A   Overcast
4:15 PM 29.3 °F 20.2 °F 24.8 °F 83% 29.79 in 10.0 mi West 10.4 mph 20.7 mph N/A   Overcast
4:35 PM 29.3 °F 22.3 °F 24.8 °F 83% 29.79 in 10.0 mi West 6.9 mph 20.7 mph N/A   Overcast
4:56 PM 29.7 °F 22.0 °F 24.8 °F 82% 29.81 in 10.0 mi WSW 8.1 mph 18.4 mph N/A   Overcast
5:15 PM 29.8 °F 23.9 °F 25.2 °F 83% 29.82 in 10.0 mi West 5.8 mph - N/A   Overcast
5:36 PM 29.7 °F 20.7 °F 24.8 °F 82% 29.83 in 10.0 mi West 10.4 mph 17.3 mph N/A   Overcast
5:55 PM 29.7 °F 22.0 °F 24.8 °F 82% 29.83 in 10.0 mi WSW 8.1 mph - N/A   Overcast
6:15 PM 29.8 °F 21.5 °F 24.8 °F 81% 29.83 in 10.0 mi WSW 9.2 mph 16.1 mph N/A   Overcast
6:36 PM 29.8 °F 20.9 °F 23.7 °F 78% 29.83 in 10.0 mi WSW 10.4 mph 16.1 mph N/A   Overcast
6:55 PM 30.4 °F 21.0 °F 23.4 °F 75% 29.84 in 10.0 mi WSW 11.5 mph 18.4 mph N/A   Overcast
7:15 PM 31.3 °F 22.7 °F 23.5 °F 73% 29.86 in 10.0 mi West 10.4 mph 19.6 mph N/A   Overcast
7:36 PM 32.0 °F 21.6 °F 23.9 °F 72% 29.88 in 10.0 mi WNW 15.0 mph 21.9 mph N/A   Overcast
7:55 PM 31.8 °F 21.8 °F 23.9 °F 73% 29.89 in 10.0 mi WNW 13.8 mph 18.4 mph N/A   Overcast
8:15 PM 31.5 °F 24.2 °F 24.3 °F 75% 29.91 in 10.0 mi WNW 8.1 mph 18.4 mph N/A   Overcast
8:35 PM 31.1 °F 23.1 °F 23.9 °F 75% 29.92 in 10.0 mi WNW 9.2 mph 17.3 mph N/A   Overcast
8:55 PM 31.1 °F 23.1 °F 23.7 °F 74% 29.93 in 10.0 mi WNW 9.2 mph - N/A   Overcast
9:15 PM 31.1 °F 23.7 °F 22.6 °F 71% 29.94 in 10.0 mi WNW 8.1 mph 17.3 mph N/A   Overcast
9:35 PM 31.1 °F 23.1 °F 22.5 °F 70% 29.94 in 10.0 mi WNW 9.2 mph - N/A   Overcast
9:55 PM 31.5 °F 24.2 °F 22.1 °F 68% 29.95 in 10.0 mi WNW 8.1 mph 16.1 mph N/A   Overcast
10:16 PM 31.1 °F 25.4 °F 22.6 °F 71% 29.96 in 10.0 mi WNW 5.8 mph 16.1 mph N/A   Overcast
10:35 PM 31.1 °F 23.7 °F 22.6 °F 71% 29.97 in 10.0 mi WNW 8.1 mph - N/A   Overcast
10:55 PM 31.1 °F 25.4 °F 22.3 °F 70% 29.98 in 10.0 mi WNW 5.8 mph - N/A   Overcast
11:15 PM 31.1 °F 23.1 °F 22.6 °F 71% 29.99 in 10.0 mi West 9.2 mph - N/A   Overcast
11:35 PM 31.1 °F 23.1 °F 22.1 °F 69% 29.99 in 10.0 mi WNW 9.2 mph - N/A   Overcast
11:56 PM 31.1 °F 23.7 °F 22.5 °F 70% 30.00 in 10.0 mi WNW 8.1 mph - N/A   Overcast